createdAt,value
2018-04-12T00:00:10.431Z,99.80
2018-04-12T00:02:44.065Z,99.90
2018-04-12T00:05:17.874Z,99.90
2018-04-12T00:07:51.673Z,99.90
2018-04-12T00:10:25.390Z,99.90
2018-04-12T00:12:59.180Z,99.80
2018-04-12T00:15:32.811Z,99.70
2018-04-12T00:18:06.747Z,99.70
2018-04-12T00:20:40.486Z,99.70
2018-04-12T00:23:14.108Z,99.70
2018-04-12T00:25:47.876Z,99.70
2018-04-12T00:28:21.604Z,99.80
2018-04-12T00:30:55.310Z,99.70
2018-04-12T00:33:29.315Z,99.60
2018-04-12T00:36:03.006Z,99.00
2018-04-12T00:38:36.745Z,98.80
2018-04-12T00:41:10.363Z,98.80
2018-04-12T00:43:44.060Z,98.80
2018-04-12T00:46:17.766Z,98.80
2018-04-12T00:48:51.532Z,98.80
2018-04-12T00:51:25.291Z,98.80
2018-04-12T00:54:05.843Z,98.80
2018-04-12T00:56:39.407Z,98.50
2018-04-12T00:59:13.768Z,98.50
2018-04-12T01:01:47.439Z,98.50
2018-04-12T01:04:21.200Z,98.70
2018-04-12T01:06:55.716Z,98.40
2018-04-12T01:09:29.269Z,98.40
2018-04-12T01:12:03.003Z,98.30
2018-04-12T01:14:36.657Z,97.90
2018-04-12T01:17:10.268Z,97.80
2018-04-12T01:19:44.013Z,98.00
2018-04-12T01:22:18.500Z,98.00
2018-04-12T01:24:52.195Z,97.80
2018-04-12T01:27:25.886Z,97.70
2018-04-12T01:29:59.487Z,98.10
2018-04-12T01:32:33.911Z,97.90
2018-04-12T01:35:07.466Z,97.90
2018-04-12T01:37:41.240Z,97.90
2018-04-12T01:40:14.958Z,97.60
2018-04-12T01:42:49.473Z,97.40
2018-04-12T01:45:23.989Z,97.60
2018-04-12T01:47:58.420Z,97.40
2018-04-12T01:50:32.828Z,97.00
2018-04-12T01:53:06.523Z,97.00
2018-04-12T01:55:40.124Z,97.00
2018-04-12T01:58:14.646Z,97.20
2018-04-12T02:00:48.274Z,97.20
2018-04-12T02:03:22.024Z,96.80
2018-04-12T02:05:55.752Z,97.00
2018-04-12T02:08:29.529Z,97.30
2018-04-12T02:11:04.045Z,97.40
2018-04-12T02:13:37.787Z,97.30
2018-04-12T02:16:11.523Z,97.30
2018-04-12T02:18:45.950Z,96.90
2018-04-12T02:21:19.544Z,96.90
2018-04-12T02:23:53.219Z,97.00
2018-04-12T02:26:26.936Z,96.80
2018-04-12T02:29:00.584Z,96.70
2018-04-12T02:31:35.085Z,96.90
2018-04-12T02:34:08.945Z,96.90
2018-04-12T02:36:42.683Z,97.00
2018-04-12T02:39:16.273Z,97.00
2018-04-12T02:41:49.976Z,97.20
2018-04-12T02:44:24.340Z,97.20
2018-04-12T02:46:58.117Z,96.90
2018-04-12T02:49:31.785Z,96.60
2018-04-12T02:52:06.215Z,96.80
2018-04-12T02:54:39.830Z,96.60
2018-04-12T02:57:13.522Z,96.40
2018-04-12T02:59:47.158Z,96.50
2018-04-12T03:02:20.752Z,96.50
2018-04-12T03:04:54.323Z,96.80
2018-04-12T03:07:28.085Z,96.60
2018-04-12T03:10:01.827Z,96.60
2018-04-12T03:12:35.519Z,96.60
2018-04-12T03:15:09.231Z,96.60
2018-04-12T03:17:42.934Z,96.60
2018-04-12T03:20:16.723Z,96.60
2018-04-12T03:22:50.376Z,97.10
2018-04-12T03:25:24.171Z,96.50
2018-04-12T03:27:57.866Z,96.60
2018-04-12T03:30:32.226Z,96.80
2018-04-12T03:33:05.876Z,96.80
2018-04-12T03:35:40.235Z,96.90
2018-04-12T03:38:13.964Z,96.90
2018-04-12T03:40:47.659Z,96.50
2018-04-12T03:43:21.429Z,96.80
2018-04-12T03:45:55.163Z,97.00
2018-04-12T03:48:28.932Z,96.80
2018-04-12T03:51:02.707Z,96.90
2018-04-12T03:53:36.469Z,96.90
2018-04-12T03:56:10.972Z,97.10
2018-04-12T03:58:44.768Z,97.10
2018-04-12T04:01:18.496Z,97.00
2018-04-12T04:03:52.815Z,96.90
2018-04-12T04:06:26.590Z,96.90
2018-04-12T04:09:00.199Z,97.00
2018-04-12T04:11:33.904Z,97.00
2018-04-12T04:14:07.743Z,97.00
2018-04-12T04:17:02.953Z,97.20
2018-04-12T04:19:48.408Z,97.30
2018-04-12T04:22:21.929Z,97.20
2018-04-12T04:24:55.496Z,97.40
2018-04-12T04:27:29.265Z,97.50
2018-04-12T04:30:02.980Z,97.60
2018-04-12T04:32:36.778Z,97.40
2018-04-12T04:35:10.462Z,97.30
2018-04-12T04:37:44.223Z,97.60
2018-04-12T04:40:17.977Z,97.50
2018-04-12T04:42:51.699Z,97.60
2018-04-12T04:45:25.430Z,97.30
2018-04-12T04:47:59.120Z,97.40
2018-04-12T04:50:32.908Z,97.10
2018-04-12T04:53:06.641Z,97.20
2018-04-12T04:55:40.470Z,97.30
2018-04-12T04:58:14.152Z,97.40
2018-04-12T05:00:47.713Z,97.00
2018-04-12T05:03:22.169Z,97.20
2018-04-12T05:05:55.758Z,97.20
2018-04-12T05:08:29.447Z,97.20
2018-04-12T05:11:03.185Z,97.00
2018-04-12T05:13:36.943Z,97.00
2018-04-12T05:16:11.459Z,96.80
2018-04-12T05:18:45.051Z,96.80
2018-04-12T05:21:18.631Z,96.90
2018-04-12T05:23:52.437Z,97.00
2018-04-12T05:26:26.979Z,96.90
2018-04-12T05:29:00.738Z,96.90
2018-04-12T05:31:34.313Z,96.60
2018-04-12T05:34:08.027Z,96.70
2018-04-12T05:36:41.744Z,96.60
2018-04-12T05:39:15.475Z,96.80
2018-04-12T05:41:49.213Z,97.00
2018-04-12T05:44:22.893Z,97.20
2018-04-12T05:46:56.601Z,96.90
2018-04-12T05:49:30.313Z,97.10
2018-04-12T05:52:04.030Z,97.30
2018-04-12T05:54:37.795Z,97.20
2018-04-12T05:57:11.407Z,97.20
2018-04-12T05:59:45.926Z,97.00
2018-04-12T06:02:19.496Z,97.00
2018-04-12T06:04:54.059Z,97.00
2018-04-12T06:07:27.825Z,97.00
2018-04-12T06:10:01.517Z,97.30
2018-04-12T06:12:35.231Z,97.30
2018-04-12T06:15:09.015Z,97.20
2018-04-12T06:17:42.716Z,96.90
2018-04-12T06:20:16.486Z,96.90
2018-04-12T06:22:50.955Z,97.20
2018-04-12T06:25:25.578Z,97.40
2018-04-12T06:27:59.239Z,97.60
2018-04-12T06:30:33.877Z,97.90
2018-04-12T06:33:07.490Z,97.80
2018-04-12T06:35:41.223Z,98.10
2018-04-12T06:38:15.086Z,98.20
2018-04-12T06:40:50.472Z,98.20
2018-04-12T06:43:24.109Z,97.90
2018-04-12T06:45:58.491Z,97.90
2018-04-12T06:48:32.039Z,98.00
2018-04-12T06:51:06.485Z,98.20
2018-04-12T06:53:40.270Z,98.30
2018-04-12T06:56:13.996Z,97.70
2018-04-12T06:58:48.477Z,97.30
2018-04-12T07:01:22.124Z,97.30
2018-04-12T07:03:55.910Z,97.40
2018-04-12T07:06:31.300Z,97.50
2018-04-12T07:09:05.891Z,97.50
2018-04-12T07:11:40.303Z,97.40
2018-04-12T07:14:14.080Z,97.40
2018-04-12T07:16:47.787Z,96.80
2018-04-12T07:19:22.239Z,96.70
2018-04-12T07:21:56.010Z,96.70
2018-04-12T07:24:29.761Z,96.20
2018-04-12T07:27:03.360Z,96.30
2018-04-12T07:29:37.121Z,96.10
2018-04-12T07:32:11.747Z,96.10
2018-04-12T07:34:45.435Z,96.40
2018-04-12T07:37:19.067Z,96.40
2018-04-12T07:39:52.970Z,96.20
2018-04-12T07:42:26.545Z,96.20
2018-04-12T07:45:01.028Z,96.00
2018-04-12T07:47:34.755Z,96.00
2018-04-12T07:50:08.388Z,95.30
2018-04-12T07:52:42.926Z,94.60
2018-04-12T07:55:17.467Z,95.50
2018-04-12T07:57:51.119Z,95.50
2018-04-12T08:00:24.841Z,95.50
2018-04-12T08:02:59.360Z,95.20
2018-04-12T08:05:33.131Z,95.20
2018-04-12T08:08:06.820Z,95.30
2018-04-12T08:10:40.508Z,95.20
2018-04-12T08:13:14.219Z,95.30
2018-04-12T08:15:47.940Z,95.00
2018-04-12T08:18:21.727Z,95.30
2018-04-12T08:20:57.870Z,95.40
2018-04-12T08:23:31.703Z,94.70
2018-04-12T08:26:05.407Z,95.10
2018-04-12T08:28:39.145Z,94.70
2018-04-12T08:31:12.844Z,93.70
2018-04-12T08:33:46.501Z,93.50
2018-04-12T08:36:20.131Z,93.70
2018-04-12T08:38:53.795Z,93.40
2018-04-12T08:41:27.569Z,92.90
2018-04-12T08:44:01.329Z,94.00
2018-04-12T08:46:35.098Z,92.80
2018-04-12T08:49:09.684Z,92.60
2018-04-12T08:51:43.392Z,92.90
2018-04-12T08:54:17.024Z,92.90
2018-04-12T08:56:51.658Z,92.80
2018-04-12T08:59:25.979Z,91.60
2018-04-12T09:01:59.731Z,91.50
2018-04-12T09:04:34.799Z,89.60
2018-04-12T09:07:09.053Z,86.10
2018-04-12T09:09:43.550Z,86.00
2018-04-12T09:12:17.248Z,86.20
2018-04-12T09:14:50.843Z,85.30
2018-04-12T09:17:25.198Z,82.20
2018-04-12T09:19:58.971Z,82.00
2018-04-12T09:22:32.742Z,82.10
2018-04-12T09:25:06.359Z,83.40
2018-04-12T09:27:40.061Z,85.20
2018-04-12T09:30:13.758Z,82.80
2018-04-12T09:32:47.458Z,83.80
2018-04-12T09:35:21.188Z,83.00
2018-04-12T09:37:54.922Z,84.90
2018-04-12T09:40:28.702Z,83.10
2018-04-12T09:43:02.379Z,83.20
2018-04-12T09:45:36.031Z,82.30
2018-04-12T09:48:10.621Z,82.20
2018-04-12T09:50:44.280Z,83.70
2018-04-12T09:53:17.995Z,83.40
2018-04-12T09:55:51.729Z,82.60
2018-04-12T09:58:25.454Z,79.10
2018-04-12T10:00:59.196Z,73.00
2018-04-12T10:03:32.973Z,73.90
2018-04-12T10:06:06.713Z,74.30
2018-04-12T10:08:43.346Z,73.60
2018-04-12T10:11:16.960Z,75.10
2018-04-12T10:13:50.663Z,77.30
2018-04-12T10:16:24.367Z,78.90
2018-04-12T10:18:57.999Z,77.80
2018-04-12T10:21:31.802Z,78.30
2018-04-12T10:24:05.601Z,79.50
2018-04-12T10:26:39.355Z,80.90
2018-04-12T10:29:13.768Z,81.20
2018-04-12T10:31:48.416Z,79.70
2018-04-12T10:34:22.166Z,79.70
2018-04-12T10:36:55.984Z,80.30
2018-04-12T10:39:29.806Z,79.20
2018-04-12T10:42:04.283Z,81.70
2018-04-12T10:44:38.079Z,81.70
2018-04-12T10:47:12.818Z,81.20
2018-04-12T10:49:46.535Z,82.60
2018-04-12T10:52:20.292Z,82.10
2018-04-12T10:54:54.037Z,81.80
2018-04-12T10:57:27.780Z,82.20
2018-04-12T11:00:02.208Z,81.70
2018-04-12T11:02:35.886Z,81.60
2018-04-12T11:05:10.296Z,81.40
2018-04-12T11:07:44.709Z,77.30
2018-04-12T11:10:18.364Z,77.30
2018-04-12T11:12:52.096Z,73.70
2018-04-12T11:15:26.540Z,67.30
2018-04-12T11:18:00.831Z,67.10
2018-04-12T11:20:34.571Z,67.60
2018-04-12T11:23:08.334Z,67.00
2018-04-12T11:25:42.073Z,67.00
2018-04-12T11:28:15.912Z,67.90
2018-04-12T11:30:49.545Z,64.20
2018-04-12T11:33:25.567Z,62.40
2018-04-12T11:35:59.146Z,59.50
2018-04-12T11:38:32.924Z,56.60
2018-04-12T11:41:06.949Z,51.10
2018-04-12T11:43:40.547Z,50.60
2018-04-12T11:46:15.072Z,55.70
2018-04-12T11:48:49.993Z,55.70
2018-04-12T11:51:23.680Z,57.80
2018-04-12T11:53:57.350Z,58.20
2018-04-12T11:56:31.156Z,55.80
2018-04-12T11:59:05.604Z,51.00
2018-04-12T12:01:39.398Z,51.00
2018-04-12T12:04:13.155Z,50.10
2018-04-12T12:06:46.858Z,49.50
2018-04-12T12:09:21.344Z,42.00
2018-04-12T12:11:55.071Z,42.00
2018-04-12T12:14:28.865Z,33.10
2018-04-12T12:17:03.311Z,24.00
2018-04-12T12:19:37.541Z,21.80
2018-04-12T12:22:11.236Z,20.90
2018-04-12T12:24:44.938Z,19.60
2018-04-12T12:27:18.711Z,18.70
2018-04-12T12:29:52.419Z,18.60
2018-04-12T12:32:26.223Z,18.30
2018-04-12T12:34:59.865Z,19.00
2018-04-12T12:37:34.239Z,21.50
2018-04-12T12:40:07.879Z,21.50
2018-04-12T12:42:41.451Z,20.80
2018-04-12T12:45:15.194Z,18.80
2018-04-12T12:47:49.687Z,16.40
2018-04-12T12:50:23.375Z,16.40
2018-04-12T12:52:57.093Z,12.80
2018-04-12T12:55:30.807Z,8.50
2018-04-12T12:58:04.371Z,6.90
2018-04-12T13:00:37.974Z,4.70
2018-04-12T13:03:11.715Z,1.00
2018-04-12T13:05:45.467Z,1.00
2018-04-12T13:08:19.219Z,1.00
2018-04-12T13:10:53.058Z,1.60
2018-04-12T13:13:26.865Z,1.90
2018-04-12T13:16:00.597Z,2.00
2018-04-12T13:18:34.375Z,1.60
2018-04-12T13:21:08.140Z,1.00
2018-04-12T13:23:41.733Z,1.00
2018-04-12T13:26:16.268Z,1.00
2018-04-12T13:28:49.903Z,1.00
2018-04-12T13:31:23.704Z,1.00
2018-04-12T13:33:58.121Z,1.00
2018-04-12T13:36:33.382Z,1.00
2018-04-12T13:39:07.148Z,1.00
2018-04-12T13:41:41.666Z,1.00
2018-04-12T13:44:15.470Z,1.00
2018-04-12T13:46:48.968Z,1.00
2018-04-12T13:49:23.549Z,1.00
2018-04-12T13:51:57.911Z,1.00
2018-04-12T13:54:31.648Z,1.00
2018-04-12T13:57:06.136Z,1.00
2018-04-12T13:59:39.757Z,1.00
2018-04-12T14:02:13.546Z,1.00
2018-04-12T14:04:48.061Z,1.00
2018-04-12T14:07:21.814Z,1.00
2018-04-12T14:09:56.292Z,1.00
2018-04-12T14:12:29.907Z,1.00
2018-04-12T14:15:04.370Z,1.00
2018-04-12T14:17:38.174Z,1.00
2018-04-12T14:20:11.785Z,1.00
2018-04-12T14:22:45.519Z,1.00
2018-04-12T14:25:19.229Z,1.00
2018-04-12T14:27:52.984Z,1.00
2018-04-12T14:30:26.563Z,1.00
2018-04-12T14:33:00.288Z,1.00
2018-04-12T14:35:34.047Z,1.00
2018-04-12T14:38:07.820Z,1.00
2018-04-12T14:40:41.524Z,1.00
2018-04-12T14:43:15.360Z,1.00
2018-04-12T14:45:49.900Z,1.00
2018-04-12T14:48:23.593Z,1.00
2018-04-12T14:50:57.220Z,1.00
2018-04-12T14:53:31.627Z,1.00
2018-04-12T14:56:05.325Z,1.00
2018-04-12T14:58:38.970Z,1.00
2018-04-12T15:01:12.575Z,1.10
2018-04-12T15:03:46.317Z,1.80
2018-04-12T15:06:20.100Z,1.70
2018-04-12T15:08:54.460Z,2.70
2018-04-12T15:11:28.860Z,2.90
2018-04-12T15:14:03.397Z,3.00
2018-04-12T15:16:37.018Z,2.90
2018-04-12T15:19:10.755Z,2.90
2018-04-12T15:21:44.458Z,2.90
2018-04-12T15:24:18.942Z,3.40
2018-04-12T15:26:52.683Z,3.20
2018-04-12T15:29:26.249Z,2.60
2018-04-12T15:32:01.698Z,1.00
2018-04-12T15:34:36.429Z,1.00
2018-04-12T15:37:11.384Z,1.30
2018-04-12T15:39:45.871Z,1.20
2018-04-12T15:42:20.119Z,2.00
2018-04-12T15:44:54.443Z,2.50
2018-04-12T15:47:28.171Z,3.00
2018-04-12T15:50:01.927Z,3.40
2018-04-12T15:52:36.533Z,4.10
2018-04-12T15:55:10.658Z,4.30
2018-04-12T15:57:44.357Z,4.60
2018-04-12T16:00:19.382Z,4.60
2018-04-12T16:02:54.927Z,4.70
2018-04-12T16:05:29.035Z,5.10
2018-04-12T16:08:02.627Z,5.40
2018-04-12T16:10:37.039Z,5.70
2018-04-12T16:13:12.403Z,7.10
2018-04-12T16:15:46.229Z,7.10
2018-04-12T16:18:20.759Z,8.10
2018-04-12T16:20:54.364Z,8.10
2018-04-12T16:23:28.107Z,8.20
2018-04-12T16:26:01.796Z,8.50
2018-04-12T16:28:36.248Z,8.70
2018-04-12T16:31:09.783Z,9.10
2018-04-12T16:33:43.552Z,9.00
2018-04-12T16:36:17.860Z,9.40
2018-04-12T16:38:51.475Z,9.40
2018-04-12T16:41:25.175Z,9.90
2018-04-12T16:43:58.945Z,10.20
2018-04-12T16:46:32.718Z,10.50
2018-04-12T16:49:07.511Z,10.80
2018-04-12T16:51:41.234Z,11.10
2018-04-12T16:54:14.928Z,11.40
2018-04-12T16:56:48.627Z,11.70
2018-04-12T16:59:22.247Z,12.30
2018-04-12T17:01:56.425Z,12.40
2018-04-12T17:04:30.913Z,13.00
2018-04-12T17:07:05.395Z,13.50
2018-04-12T17:09:39.747Z,13.50
2018-04-12T17:12:14.263Z,13.60
2018-04-12T17:14:47.845Z,14.00
2018-04-12T17:17:22.355Z,14.70
2018-04-12T17:19:55.968Z,14.70
2018-04-12T17:22:29.674Z,15.10
2018-04-12T17:25:03.341Z,15.50
2018-04-12T17:27:37.079Z,16.00
2018-04-12T17:30:11.500Z,16.10
2018-04-12T17:32:45.109Z,16.00
2018-04-12T17:35:18.710Z,16.60
2018-04-12T17:37:52.399Z,17.30
2018-04-12T17:40:27.583Z,17.90
2018-04-12T17:43:01.340Z,18.10
2018-04-12T17:45:35.074Z,19.00
2018-04-12T17:48:08.848Z,19.40
2018-04-12T17:50:42.571Z,20.20
2018-04-12T17:53:16.261Z,20.70
2018-04-12T17:55:50.626Z,21.50
2018-04-12T17:58:25.091Z,21.70
2018-04-12T18:00:59.461Z,22.70
2018-04-12T18:03:33.203Z,22.70
2018-04-12T18:06:06.943Z,22.70
2018-04-12T18:08:40.676Z,23.00
2018-04-12T18:11:14.447Z,22.90
2018-04-12T18:13:48.952Z,23.20
2018-04-12T18:16:22.671Z,23.20
2018-04-12T18:18:56.355Z,23.60
2018-04-12T18:21:30.019Z,23.50
2018-04-12T18:24:04.613Z,23.90
2018-04-12T18:26:38.346Z,23.90
2018-04-12T18:29:12.767Z,23.80
2018-04-12T18:31:46.423Z,23.80
2018-04-12T18:34:20.815Z,22.80
2018-04-12T18:36:54.376Z,22.80
2018-04-12T18:39:28.859Z,22.80
2018-04-12T18:42:02.580Z,22.80
2018-04-12T18:44:36.387Z,23.30
2018-04-12T18:47:10.634Z,23.40
2018-04-12T18:49:45.289Z,24.20
2018-04-12T18:52:18.950Z,24.10
2018-04-12T18:54:52.591Z,24.00
2018-04-12T18:57:26.347Z,24.10
2018-04-12T19:00:00.119Z,24.20
2018-04-12T19:02:33.830Z,24.30
2018-04-12T19:05:08.319Z,24.70
2018-04-12T19:07:42.947Z,25.00
2018-04-12T19:10:16.527Z,24.90
2018-04-12T19:12:50.300Z,25.60
2018-04-12T19:15:24.036Z,24.90
2018-04-12T19:17:57.821Z,24.60
2018-04-12T19:20:31.566Z,24.20
2018-04-12T19:23:05.253Z,23.90
2018-04-12T19:25:39.053Z,23.70
2018-04-12T19:28:12.826Z,23.20
2018-04-12T19:30:46.596Z,22.70
2018-04-12T19:33:20.299Z,22.60
2018-04-12T19:35:53.868Z,22.60
2018-04-12T19:38:27.559Z,22.60
2018-04-12T19:41:01.312Z,22.60
2018-04-12T19:43:34.949Z,22.60
2018-04-12T19:46:08.671Z,22.60
2018-04-12T19:48:42.451Z,22.60
2018-04-12T19:51:16.206Z,22.60
2018-04-12T19:53:50.695Z,23.80
2018-04-12T19:56:24.355Z,23.70
2018-04-12T19:58:58.133Z,24.50
2018-04-12T20:01:32.540Z,25.90
2018-04-12T20:04:06.325Z,25.90
2018-04-12T20:06:40.021Z,26.60
2018-04-12T20:09:13.799Z,26.90
2018-04-12T20:11:48.014Z,27.10
2018-04-12T20:14:21.568Z,27.80
2018-04-12T20:16:56.135Z,29.30
2018-04-12T20:19:29.789Z,29.30
2018-04-12T20:22:03.542Z,29.40
2018-04-12T20:24:37.290Z,29.90
2018-04-12T20:27:11.820Z,31.60
2018-04-12T20:29:45.579Z,31.60
2018-04-12T20:32:19.211Z,32.20
2018-04-12T20:34:52.991Z,32.30
2018-04-12T20:37:26.756Z,32.70
2018-04-12T20:40:00.522Z,33.20
2018-04-12T20:42:34.264Z,33.60
2018-04-12T20:45:08.733Z,35.00
2018-04-12T20:47:42.300Z,34.70
2018-04-12T20:50:16.065Z,35.10
2018-04-12T20:52:49.795Z,35.60
2018-04-12T20:55:24.286Z,37.40
2018-04-12T20:57:59.338Z,37.20
2018-04-12T21:00:33.044Z,37.20
2018-04-12T21:03:06.805Z,36.70
2018-04-12T21:05:40.624Z,35.70
2018-04-12T21:08:14.518Z,34.90
2018-04-12T21:10:48.157Z,34.00
2018-04-12T21:13:22.656Z,31.20
2018-04-12T21:15:56.370Z,31.20
2018-04-12T21:18:30.121Z,30.00
2018-04-12T21:21:03.863Z,29.30
2018-04-12T21:23:37.436Z,29.30
2018-04-12T21:26:11.211Z,29.30
2018-04-12T21:28:44.952Z,29.30
2018-04-12T21:31:18.762Z,29.30
2018-04-12T21:33:52.415Z,28.60
2018-04-12T21:36:26.199Z,28.60
2018-04-12T21:38:59.938Z,28.30
2018-04-12T21:41:33.507Z,28.40
2018-04-12T21:44:08.036Z,27.90
2018-04-12T21:46:41.751Z,27.80
2018-04-12T21:49:15.724Z,27.80
2018-04-12T21:51:50.087Z,28.30
2018-04-12T21:54:23.812Z,28.30
2018-04-12T21:56:57.602Z,28.20
2018-04-12T21:59:31.355Z,28.20
2018-04-12T22:02:04.927Z,28.00
2018-04-12T22:04:38.684Z,27.50
2018-04-12T22:07:12.465Z,27.40
2018-04-12T22:09:46.163Z,27.00
2018-04-12T22:12:19.942Z,26.50
2018-04-12T22:14:54.222Z,25.80
2018-04-12T22:17:27.918Z,25.70
2018-04-12T22:20:01.693Z,25.70
2018-04-12T22:22:35.425Z,27.20
2018-04-12T22:25:09.174Z,29.00
2018-04-12T22:27:42.979Z,29.80
2018-04-12T22:30:16.720Z,36.70
2018-04-12T22:32:50.528Z,58.20
2018-04-12T22:35:24.272Z,69.20
2018-04-12T22:37:58.000Z,76.00
2018-04-12T22:40:31.777Z,81.30
2018-04-12T22:43:05.583Z,84.80
2018-04-12T22:45:39.246Z,88.30
2018-04-12T22:48:13.023Z,90.00
2018-04-12T22:50:46.612Z,90.70
2018-04-12T22:53:21.147Z,92.70
2018-04-12T22:55:54.849Z,92.60
2018-04-12T22:58:28.640Z,92.30
2018-04-12T23:01:02.298Z,91.50
2018-04-12T23:03:36.102Z,91.00
2018-04-12T23:06:10.647Z,91.10
2018-04-12T23:08:44.409Z,91.30
2018-04-12T23:11:18.205Z,92.50
2018-04-12T23:13:51.989Z,92.80
2018-04-12T23:16:25.688Z,93.00
2018-04-12T23:18:59.405Z,93.30
2018-04-12T23:21:33.179Z,93.60
2018-04-12T23:24:06.877Z,94.00
2018-04-12T23:26:40.644Z,93.70
2018-04-12T23:29:14.413Z,94.20
2018-04-12T23:31:48.222Z,94.90
2018-04-12T23:34:22.711Z,95.20
2018-04-12T23:36:56.514Z,95.10
2018-04-12T23:39:30.232Z,94.50
2018-04-12T23:42:04.776Z,94.90
2018-04-12T23:44:38.452Z,94.80
2018-04-12T23:47:12.193Z,94.70
2018-04-12T23:49:45.803Z,95.10
2018-04-12T23:52:20.327Z,95.20
2018-04-12T23:54:53.878Z,95.10
2018-04-12T23:57:27.688Z,95.30
